sensor_id;sensor_type;location;lat;lon;timestamp;P1;durP1;ratioP1;P2;durP2;ratioP2
35907;SDS011;22003;50.320;8.054;2022-11-20T05:03:27;33.55;;;15.60;;
35907;SDS011;22003;50.320;8.054;2022-11-20T05:05:52;33.22;;;16.20;;
35907;SDS011;22003;50.320;8.054;2022-11-20T05:08:17;33.50;;;16.33;;
35907;SDS011;22003;50.320;8.054;2022-11-20T05:10:43;37.25;;;18.10;;
35907;SDS011;22003;50.320;8.054;2022-11-20T05:13:08;35.92;;;15.60;;
35907;SDS011;22003;50.320;8.054;2022-11-20T05:15:33;39.85;;;17.15;;
35907;SDS011;22003;50.320;8.054;2022-11-20T05:17:58;40.67;;;16.63;;
35907;SDS011;22003;50.320;8.054;2022-11-20T05:20:23;38.20;;;16.02;;
35907;SDS011;22003;50.320;8.054;2022-11-20T05:22:48;33.60;;;16.15;;
35907;SDS011;22003;50.320;8.054;2022-11-20T05:25:13;29.40;;;15.75;;
35907;SDS011;22003;50.320;8.054;2022-11-20T05:27:39;42.08;;;17.52;;
35907;SDS011;22003;50.320;8.054;2022-11-20T05:30:04;35.60;;;16.10;;
35907;SDS011;22003;50.320;8.054;2022-11-20T05:32:30;34.65;;;16.25;;
35907;SDS011;22003;50.320;8.054;2022-11-20T05:34:55;36.55;;;17.90;;
35907;SDS011;22003;50.320;8.054;2022-11-20T05:37:20;40.90;;;18.23;;
35907;SDS011;22003;50.320;8.054;2022-11-20T05:39:45;38.72;;;18.23;;
35907;SDS011;22003;50.320;8.054;2022-11-20T05:42:10;36.95;;;17.15;;
35907;SDS011;22003;50.320;8.054;2022-11-20T05:44:54;43.63;;;18.50;;
35907;SDS011;22003;50.320;8.054;2022-11-20T05:47:19;41.83;;;18.73;;
35907;SDS011;22003;50.320;8.054;2022-11-20T05:49:44;41.58;;;16.55;;
35907;SDS011;22003;50.320;8.054;2022-11-20T05:52:09;40.35;;;18.30;;
35907;SDS011;22003;50.320;8.054;2022-11-20T05:54:35;46.33;;;19.77;;
35907;SDS011;22003;50.320;8.054;2022-11-20T05:57:00;41.47;;;19.52;;
35907;SDS011;22003;50.320;8.054;2022-11-20T05:59:25;44.83;;;19.60;;
35907;SDS011;22003;50.320;8.054;2022-11-20T06:01:50;39.67;;;18.70;;
35907;SDS011;22003;50.320;8.054;2022-11-20T06:04:15;48.38;;;19.80;;
35907;SDS011;22003;50.320;8.054;2022-11-20T06:06:40;49.17;;;20.45;;
35907;SDS011;22003;50.320;8.054;2022-11-20T06:09:05;50.22;;;20.60;;
35907;SDS011;22003;50.320;8.054;2022-11-20T06:11:31;55.33;;;21.95;;
35907;SDS011;22003;50.320;8.054;2022-11-20T06:13:56;53.97;;;23.27;;
35907;SDS011;22003;50.320;8.054;2022-11-20T06:16:21;52.80;;;20.23;;
35907;SDS011;22003;50.320;8.054;2022-11-20T06:18:46;52.13;;;21.95;;
35907;SDS011;22003;50.320;8.054;2022-11-20T06:21:13;49.50;;;21.20;;
35907;SDS011;22003;50.320;8.054;2022-11-20T06:23:39;46.42;;;21.35;;
35907;SDS011;22003;50.320;8.054;2022-11-20T06:26:05;50.50;;;20.30;;
35907;SDS011;22003;50.320;8.054;2022-11-20T06:28:30;54.72;;;21.38;;
35907;SDS011;22003;50.320;8.054;2022-11-20T06:30:56;61.03;;;22.10;;
35907;SDS011;22003;50.320;8.054;2022-11-20T06:33:21;51.83;;;21.42;;
35907;SDS011;22003;50.320;8.054;2022-11-20T06:35:46;50.92;;;22.63;;
35907;SDS011;22003;50.320;8.054;2022-11-20T06:38:11;53.88;;;21.60;;
35907;SDS011;22003;50.320;8.054;2022-11-20T06:40:39;57.50;;;21.60;;
35907;SDS011;22003;50.320;8.054;2022-11-20T06:43:04;53.45;;;21.63;;
35907;SDS011;22003;50.320;8.054;2022-11-20T06:45:29;58.08;;;23.98;;
35907;SDS011;22003;50.320;8.054;2022-11-20T06:47:56;58.58;;;22.38;;
35907;SDS011;22003;50.320;8.054;2022-11-20T06:50:21;57.80;;;23.38;;
35907;SDS011;22003;50.320;8.054;2022-11-20T06:52:46;53.53;;;21.23;;
35907;SDS011;22003;50.320;8.054;2022-11-20T06:55:12;55.63;;;22.02;;
35907;SDS011;22003;50.320;8.054;2022-11-20T06:57:37;55.28;;;21.60;;
35907;SDS011;22003;50.320;8.054;2022-11-20T07:00:02;52.92;;;21.10;;
35907;SDS011;22003;50.320;8.054;2022-11-20T07:02:27;54.17;;;22.27;;
35907;SDS011;22003;50.320;8.054;2022-11-20T07:04:52;52.40;;;19.95;;
35907;SDS011;22003;50.320;8.054;2022-11-20T07:07:18;55.00;;;22.58;;
35907;SDS011;22003;50.320;8.054;2022-11-20T07:09:43;51.58;;;20.20;;
35907;SDS011;22003;50.320;8.054;2022-11-20T07:12:08;61.42;;;22.88;;
35907;SDS011;22003;50.320;8.054;2022-11-20T07:14:33;54.97;;;22.45;;
35907;SDS011;22003;50.320;8.054;2022-11-20T07:16:58;45.53;;;19.42;;
35907;SDS011;22003;50.320;8.054;2022-11-20T07:19:23;44.08;;;18.38;;
35907;SDS011;22003;50.320;8.054;2022-11-20T07:21:48;48.45;;;20.48;;
35907;SDS011;22003;50.320;8.054;2022-11-20T07:24:13;47.95;;;19.33;;
35907;SDS011;22003;50.320;8.054;2022-11-20T07:26:39;48.75;;;20.85;;
35907;SDS011;22003;50.320;8.054;2022-11-20T07:29:04;46.42;;;20.38;;
35907;SDS011;22003;50.320;8.054;2022-11-20T07:31:29;52.03;;;21.33;;
35907;SDS011;22003;50.320;8.054;2022-11-20T07:33:54;50.33;;;20.35;;
35907;SDS011;22003;50.320;8.054;2022-11-20T07:36:19;56.55;;;22.23;;
35907;SDS011;22003;50.320;8.054;2022-11-20T07:38:44;50.58;;;23.17;;
35907;SDS011;22003;50.320;8.054;2022-11-20T07:41:09;50.83;;;21.33;;
35907;SDS011;22003;50.320;8.054;2022-11-20T07:43:35;50.25;;;19.73;;
35907;SDS011;22003;50.320;8.054;2022-11-20T07:46:00;60.85;;;21.65;;
35907;SDS011;22003;50.320;8.054;2022-11-20T07:48:25;54.60;;;21.40;;
35907;SDS011;22003;50.320;8.054;2022-11-20T07:50:54;52.88;;;21.30;;
35907;SDS011;22003;50.320;8.054;2022-11-20T07:53:19;60.20;;;24.05;;
35907;SDS011;22003;50.320;8.054;2022-11-20T07:55:45;58.78;;;22.85;;
35907;SDS011;22003;50.320;8.054;2022-11-20T07:58:10;59.05;;;22.70;;
35907;SDS011;22003;50.320;8.054;2022-11-20T08:00:35;61.42;;;23.17;;
35907;SDS011;22003;50.320;8.054;2022-11-20T08:03:02;60.13;;;22.70;;
35907;SDS011;22003;50.320;8.054;2022-11-20T08:05:28;61.95;;;23.65;;
35907;SDS011;22003;50.320;8.054;2022-11-20T08:07:53;59.10;;;23.45;;
35907;SDS011;22003;50.320;8.054;2022-11-20T08:10:18;54.47;;;22.70;;
35907;SDS011;22003;50.320;8.054;2022-11-20T08:12:44;56.13;;;22.63;;
35907;SDS011;22003;50.320;8.054;2022-11-20T08:15:28;50.55;;;20.70;;
35907;SDS011;22003;50.320;8.054;2022-11-20T08:17:58;58.70;;;21.50;;
35907;SDS011;22003;50.320;8.054;2022-11-20T08:20:24;53.50;;;22.30;;
35907;SDS011;22003;50.320;8.054;2022-11-20T08:22:49;51.70;;;21.00;;
35907;SDS011;22003;50.320;8.054;2022-11-20T08:25:14;60.03;;;23.83;;
35907;SDS011;22003;50.320;8.054;2022-11-20T08:27:39;66.80;;;25.60;;
35907;SDS011;22003;50.320;8.054;2022-11-20T08:30:04;57.88;;;22.33;;
35907;SDS011;22003;50.320;8.054;2022-11-20T08:32:30;59.10;;;22.85;;
35907;SDS011;22003;50.320;8.054;2022-11-20T08:34:55;64.50;;;24.42;;
35907;SDS011;22003;50.320;8.054;2022-11-20T08:37:20;61.85;;;23.58;;
35907;SDS011;22003;50.320;8.054;2022-11-20T08:39:45;58.28;;;23.10;;
35907;SDS011;22003;50.320;8.054;2022-11-20T08:42:11;59.95;;;23.13;;
35907;SDS011;22003;50.320;8.054;2022-11-20T08:44:36;57.72;;;24.33;;
35907;SDS011;22003;50.320;8.054;2022-11-20T08:47:01;60.15;;;23.27;;
35907;SDS011;22003;50.320;8.054;2022-11-20T08:49:27;57.67;;;23.45;;
35907;SDS011;22003;50.320;8.054;2022-11-20T08:51:52;61.35;;;23.15;;
35907;SDS011;22003;50.320;8.054;2022-11-20T08:54:19;55.72;;;23.60;;
35907;SDS011;22003;50.320;8.054;2022-11-20T08:56:46;61.38;;;24.30;;
35907;SDS011;22003;50.320;8.054;2022-11-20T08:59:12;61.22;;;24.38;;
35907;SDS011;22003;50.320;8.054;2022-11-20T09:01:37;56.92;;;23.10;;
35907;SDS011;22003;50.320;8.054;2022-11-20T09:04:02;53.55;;;21.70;;
35907;SDS011;22003;50.320;8.054;2022-11-20T09:06:29;52.78;;;21.77;;
35907;SDS011;22003;50.320;8.054;2022-11-20T09:08:54;47.65;;;20.58;;
35907;SDS011;22003;50.320;8.054;2022-11-20T09:11:19;46.03;;;20.95;;
35907;SDS011;22003;50.320;8.054;2022-11-20T09:13:45;53.35;;;21.35;;
35907;SDS011;22003;50.320;8.054;2022-11-20T09:16:10;53.35;;;21.42;;
35907;SDS011;22003;50.320;8.054;2022-11-20T09:18:35;49.25;;;21.48;;
35907;SDS011;22003;50.320;8.054;2022-11-20T09:21:03;46.22;;;20.33;;
35907;SDS011;22003;50.320;8.054;2022-11-20T09:23:31;54.60;;;22.88;;
35907;SDS011;22003;50.320;8.054;2022-11-20T09:25:56;50.08;;;20.75;;
35907;SDS011;22003;50.320;8.054;2022-11-20T09:28:24;50.67;;;21.63;;
35907;SDS011;22003;50.320;8.054;2022-11-20T09:30:49;52.15;;;22.17;;
35907;SDS011;22003;50.320;8.054;2022-11-20T09:33:14;49.70;;;20.77;;
35907;SDS011;22003;50.320;8.054;2022-11-20T09:35:40;50.42;;;21.65;;
35907;SDS011;22003;50.320;8.054;2022-11-20T09:38:05;53.90;;;21.20;;
35907;SDS011;22003;50.320;8.054;2022-11-20T09:40:31;48.08;;;20.30;;
35907;SDS011;22003;50.320;8.054;2022-11-20T09:43:03;45.70;;;21.70;;
35907;SDS011;22003;50.320;8.054;2022-11-20T09:48:20;51.47;;;21.70;;
35907;SDS011;22003;50.320;8.054;2022-11-20T09:50:49;59.38;;;22.33;;
35907;SDS011;22003;50.320;8.054;2022-11-20T09:55:46;53.10;;;22.65;;
35907;SDS011;22003;50.320;8.054;2022-11-20T09:58:14;48.90;;;21.20;;
35907;SDS011;22003;50.320;8.054;2022-11-20T10:00:40;54.33;;;21.63;;
35907;SDS011;22003;50.320;8.054;2022-11-20T10:03:10;55.67;;;21.92;;
35907;SDS011;22003;50.320;8.054;2022-11-20T10:05:39;53.92;;;21.08;;
35907;SDS011;22003;50.320;8.054;2022-11-20T10:08:22;50.75;;;21.95;;
35907;SDS011;22003;50.320;8.054;2022-11-20T10:13:50;53.72;;;21.77;;
35907;SDS011;22003;50.320;8.054;2022-11-20T10:16:26;51.38;;;20.70;;
35907;SDS011;22003;50.320;8.054;2022-11-20T10:19:01;51.47;;;20.88;;
35907;SDS011;22003;50.320;8.054;2022-11-20T10:29:16;56.33;;;23.48;;
35907;SDS011;22003;50.320;8.054;2022-11-20T10:31:44;56.13;;;23.02;;
35907;SDS011;22003;50.320;8.054;2022-11-20T10:34:21;54.85;;;22.02;;
35907;SDS011;22003;50.320;8.054;2022-11-20T10:36:50;56.03;;;22.15;;
35907;SDS011;22003;50.320;8.054;2022-11-20T10:39:18;56.53;;;24.63;;
35907;SDS011;22003;50.320;8.054;2022-11-20T10:41:47;57.15;;;23.65;;
35907;SDS011;22003;50.320;8.054;2022-11-20T10:44:14;60.42;;;23.38;;
35907;SDS011;22003;50.320;8.054;2022-11-20T10:47:00;58.67;;;24.27;;
35907;SDS011;22003;50.320;8.054;2022-11-20T10:49:25;52.45;;;23.25;;
35907;SDS011;22003;50.320;8.054;2022-11-20T10:51:54;52.65;;;22.55;;
35907;SDS011;22003;50.320;8.054;2022-11-20T10:54:36;54.55;;;21.83;;
35907;SDS011;22003;50.320;8.054;2022-11-20T10:57:07;52.63;;;22.42;;
35907;SDS011;22003;50.320;8.054;2022-11-20T10:59:41;54.35;;;22.55;;
35907;SDS011;22003;50.320;8.054;2022-11-20T11:02:21;53.10;;;22.42;;
35907;SDS011;22003;50.320;8.054;2022-11-20T11:04:48;51.53;;;21.65;;
35907;SDS011;22003;50.320;8.054;2022-11-20T11:10:05;52.17;;;22.85;;
35907;SDS011;22003;50.320;8.054;2022-11-20T11:12:28;47.35;;;21.65;;
35907;SDS011;22003;50.320;8.054;2022-11-20T11:14:54;49.40;;;20.85;;
35907;SDS011;22003;50.320;8.054;2022-11-20T11:22:46;49.83;;;21.17;;
35907;SDS011;22003;50.320;8.054;2022-11-20T11:25:19;48.15;;;20.17;;
35907;SDS011;22003;50.320;8.054;2022-11-20T11:27:46;46.90;;;20.52;;
35907;SDS011;22003;50.320;8.054;2022-11-20T11:30:15;49.03;;;21.38;;
35907;SDS011;22003;50.320;8.054;2022-11-20T11:32:41;53.67;;;21.02;;
35907;SDS011;22003;50.320;8.054;2022-11-20T11:35:06;49.45;;;19.30;;
35907;SDS011;22003;50.320;8.054;2022-11-20T11:37:37;48.83;;;19.42;;
35907;SDS011;22003;50.320;8.054;2022-11-20T11:40:03;45.85;;;20.77;;
35907;SDS011;22003;50.320;8.054;2022-11-20T11:42:29;45.97;;;18.92;;
35907;SDS011;22003;50.320;8.054;2022-11-20T11:44:55;39.28;;;17.48;;
35907;SDS011;22003;50.320;8.054;2022-11-20T11:47:31;37.85;;;17.77;;
35907;SDS011;22003;50.320;8.054;2022-11-20T11:50:01;38.03;;;16.57;;
35907;SDS011;22003;50.320;8.054;2022-11-20T11:52:26;39.05;;;16.63;;
35907;SDS011;22003;50.320;8.054;2022-11-20T11:54:55;45.60;;;17.20;;
35907;SDS011;22003;50.320;8.054;2022-11-20T11:57:23;35.00;;;15.10;;
35907;SDS011;22003;50.320;8.054;2022-11-20T12:02:29;38.67;;;15.80;;
35907;SDS011;22003;50.320;8.054;2022-11-20T12:04:57;34.05;;;14.73;;
35907;SDS011;22003;50.320;8.054;2022-11-20T12:13:02;35.42;;;15.63;;
35907;SDS011;22003;50.320;8.054;2022-11-20T12:15:30;34.88;;;14.75;;
35907;SDS011;22003;50.320;8.054;2022-11-20T12:17:55;35.63;;;16.73;;
35907;SDS011;22003;50.320;8.054;2022-11-20T12:20:22;34.88;;;14.75;;
35907;SDS011;22003;50.320;8.054;2022-11-20T12:22:58;34.88;;;14.93;;
35907;SDS011;22003;50.320;8.054;2022-11-20T12:25:27;33.60;;;15.25;;
35907;SDS011;22003;50.320;8.054;2022-11-20T12:31:00;29.50;;;13.82;;
35907;SDS011;22003;50.320;8.054;2022-11-20T12:33:36;34.70;;;14.43;;
35907;SDS011;22003;50.320;8.054;2022-11-20T12:41:15;30.23;;;12.77;;
35907;SDS011;22003;50.320;8.054;2022-11-20T12:44:16;29.75;;;14.45;;
35907;SDS011;22003;50.320;8.054;2022-11-20T12:47:24;33.42;;;14.02;;
35907;SDS011;22003;50.320;8.054;2022-11-20T12:55:17;29.48;;;13.27;;
35907;SDS011;22003;50.320;8.054;2022-11-20T13:00:15;31.60;;;13.43;;
35907;SDS011;22003;50.320;8.054;2022-11-20T13:03:00;32.80;;;13.60;;
35907;SDS011;22003;50.320;8.054;2022-11-20T13:05:31;31.45;;;14.48;;
35907;SDS011;22003;50.320;8.054;2022-11-20T13:07:59;32.13;;;14.90;;
35907;SDS011;22003;50.320;8.054;2022-11-20T13:10:49;33.28;;;14.52;;
35907;SDS011;22003;50.320;8.054;2022-11-20T13:13:16;32.42;;;14.57;;
35907;SDS011;22003;50.320;8.054;2022-11-20T13:15:51;37.03;;;15.25;;
35907;SDS011;22003;50.320;8.054;2022-11-20T13:18:19;35.75;;;15.93;;
35907;SDS011;22003;50.320;8.054;2022-11-20T13:20:45;41.17;;;17.20;;
35907;SDS011;22003;50.320;8.054;2022-11-20T13:23:10;38.65;;;17.77;;
35907;SDS011;22003;50.320;8.054;2022-11-20T13:25:36;40.22;;;17.25;;
35907;SDS011;22003;50.320;8.054;2022-11-20T13:28:27;42.63;;;17.40;;
35907;SDS011;22003;50.320;8.054;2022-11-20T13:30:50;44.65;;;18.17;;
35907;SDS011;22003;50.320;8.054;2022-11-20T13:33:27;40.78;;;18.15;;
35907;SDS011;22003;50.320;8.054;2022-11-20T13:36:00;45.53;;;18.35;;
35907;SDS011;22003;50.320;8.054;2022-11-20T13:38:26;38.28;;;18.35;;
35907;SDS011;22003;50.320;8.054;2022-11-20T13:40:58;42.70;;;17.55;;
35907;SDS011;22003;50.320;8.054;2022-11-20T13:43:42;44.42;;;17.60;;
35907;SDS011;22003;50.320;8.054;2022-11-20T13:46:09;36.47;;;16.85;;
35907;SDS011;22003;50.320;8.054;2022-11-20T13:48:41;30.83;;;13.48;;
35907;SDS011;22003;50.320;8.054;2022-11-20T14:01:24;44.00;;;18.80;;
35907;SDS011;22003;50.320;8.054;2022-11-20T14:03:50;45.50;;;18.48;;
35907;SDS011;22003;50.320;8.054;2022-11-20T14:06:24;46.88;;;18.30;;
35907;SDS011;22003;50.320;8.054;2022-11-20T14:08:52;40.42;;;18.48;;
35907;SDS011;22003;50.320;8.054;2022-11-20T14:11:18;44.78;;;19.27;;
35907;SDS011;22003;50.320;8.054;2022-11-20T14:13:56;37.75;;;17.98;;
35907;SDS011;22003;50.320;8.054;2022-11-20T14:16:23;39.78;;;18.15;;
35907;SDS011;22003;50.320;8.054;2022-11-20T14:18:48;49.63;;;20.38;;
35907;SDS011;22003;50.320;8.054;2022-11-20T14:21:27;41.00;;;18.63;;
35907;SDS011;22003;50.320;8.054;2022-11-20T14:23:53;41.72;;;17.65;;
35907;SDS011;22003;50.320;8.054;2022-11-20T14:26:19;46.78;;;19.45;;
35907;SDS011;22003;50.320;8.054;2022-11-20T14:28:49;50.47;;;23.33;;
35907;SDS011;22003;50.320;8.054;2022-11-20T14:31:21;38.05;;;19.23;;
35907;SDS011;22003;50.320;8.054;2022-11-20T14:33:47;43.25;;;19.13;;
35907;SDS011;22003;50.320;8.054;2022-11-20T14:36:20;39.47;;;18.45;;
35907;SDS011;22003;50.320;8.054;2022-11-20T14:38:45;43.40;;;19.15;;
35907;SDS011;22003;50.320;8.054;2022-11-20T14:41:16;41.00;;;17.95;;
35907;SDS011;22003;50.320;8.054;2022-11-20T14:43:44;43.10;;;18.63;;
35907;SDS011;22003;50.320;8.054;2022-11-20T14:46:10;41.20;;;18.95;;
35907;SDS011;22003;50.320;8.054;2022-11-20T14:51:01;45.35;;;19.38;;
35907;SDS011;22003;50.320;8.054;2022-11-20T14:53:26;46.95;;;19.85;;
35907;SDS011;22003;50.320;8.054;2022-11-20T14:55:58;44.72;;;20.10;;
35907;SDS011;22003;50.320;8.054;2022-11-20T14:58:25;38.22;;;18.05;;
35907;SDS011;22003;50.320;8.054;2022-11-20T15:00:55;39.38;;;18.58;;
35907;SDS011;22003;50.320;8.054;2022-11-20T15:03:20;50.75;;;21.08;;
35907;SDS011;22003;50.320;8.054;2022-11-20T15:05:47;46.30;;;19.90;;
35907;SDS011;22003;50.320;8.054;2022-11-20T15:08:13;46.53;;;23.00;;
35907;SDS011;22003;50.320;8.054;2022-11-20T15:10:38;45.42;;;20.67;;
35907;SDS011;22003;50.320;8.054;2022-11-20T15:13:13;46.47;;;22.33;;
35907;SDS011;22003;50.320;8.054;2022-11-20T15:15:45;41.97;;;18.08;;
35907;SDS011;22003;50.320;8.054;2022-11-20T15:18:14;43.60;;;17.70;;
35907;SDS011;22003;50.320;8.054;2022-11-20T15:20:40;43.90;;;18.98;;
35907;SDS011;22003;50.320;8.054;2022-11-20T15:23:12;42.05;;;18.88;;
35907;SDS011;22003;50.320;8.054;2022-11-20T15:25:38;38.60;;;16.52;;
35907;SDS011;22003;50.320;8.054;2022-11-20T15:28:04;42.13;;;17.27;;
35907;SDS011;22003;50.320;8.054;2022-11-20T15:30:29;45.17;;;17.38;;
35907;SDS011;22003;50.320;8.054;2022-11-20T15:32:55;41.10;;;18.67;;
35907;SDS011;22003;50.320;8.054;2022-11-20T15:35:20;46.55;;;20.05;;
35907;SDS011;22003;50.320;8.054;2022-11-20T15:37:45;40.38;;;17.23;;
35907;SDS011;22003;50.320;8.054;2022-11-20T15:40:10;37.58;;;17.48;;
35907;SDS011;22003;50.320;8.054;2022-11-20T15:42:36;36.83;;;17.15;;
35907;SDS011;22003;50.320;8.054;2022-11-20T15:45:01;48.05;;;19.40;;
35907;SDS011;22003;50.320;8.054;2022-11-20T15:47:32;44.08;;;18.67;;
35907;SDS011;22003;50.320;8.054;2022-11-20T15:49:58;45.53;;;18.58;;
35907;SDS011;22003;50.320;8.054;2022-11-20T15:52:23;35.00;;;15.90;;
35907;SDS011;22003;50.320;8.054;2022-11-20T15:54:48;42.10;;;18.95;;
35907;SDS011;22003;50.320;8.054;2022-11-20T15:57:14;43.60;;;17.60;;
35907;SDS011;22003;50.320;8.054;2022-11-20T15:59:39;40.17;;;16.90;;
35907;SDS011;22003;50.320;8.054;2022-11-20T16:02:12;44.85;;;21.30;;
35907;SDS011;22003;50.320;8.054;2022-11-20T16:04:38;44.58;;;19.23;;
35907;SDS011;22003;50.320;8.054;2022-11-20T16:07:03;52.85;;;21.92;;
35907;SDS011;22003;50.320;8.054;2022-11-20T16:09:28;58.67;;;28.25;;
35907;SDS011;22003;50.320;8.054;2022-11-20T16:11:53;51.25;;;22.77;;
35907;SDS011;22003;50.320;8.054;2022-11-20T16:14:19;60.00;;;28.75;;
35907;SDS011;22003;50.320;8.054;2022-11-20T16:17:02;26.05;;;10.65;;
35907;SDS011;22003;50.320;8.054;2022-11-20T16:19:27;12.70;;;6.72;;
35907;SDS011;22003;50.320;8.054;2022-11-20T16:21:53;10.85;;;5.10;;
35907;SDS011;22003;50.320;8.054;2022-11-20T16:24:18;9.65;;;3.60;;
35907;SDS011;22003;50.320;8.054;2022-11-20T16:26:44;7.65;;;3.38;;
35907;SDS011;22003;50.320;8.054;2022-11-20T16:31:36;7.75;;;5.18;;
35907;SDS011;22003;50.320;8.054;2022-11-20T16:34:03;3.17;;;1.95;;
35907;SDS011;22003;50.320;8.054;2022-11-20T16:36:28;4.18;;;2.40;;
35907;SDS011;22003;50.320;8.054;2022-11-20T16:38:55;12.25;;;6.50;;
35907;SDS011;22003;50.320;8.054;2022-11-20T16:41:21;34.22;;;16.08;;
35907;SDS011;22003;50.320;8.054;2022-11-20T16:43:50;62.03;;;29.13;;
35907;SDS011;22003;50.320;8.054;2022-11-20T16:46:16;25.15;;;12.30;;
35907;SDS011;22003;50.320;8.054;2022-11-20T16:48:42;25.40;;;11.93;;
35907;SDS011;22003;50.320;8.054;2022-11-20T16:51:08;19.00;;;9.50;;
35907;SDS011;22003;50.320;8.054;2022-11-20T16:53:35;13.18;;;6.05;;
35907;SDS011;22003;50.320;8.054;2022-11-20T16:56:08;8.57;;;4.57;;
35907;SDS011;22003;50.320;8.054;2022-11-20T16:58:33;16.88;;;3.50;;
35907;SDS011;22003;50.320;8.054;2022-11-20T17:01:04;3.53;;;1.77;;
35907;SDS011;22003;50.320;8.054;2022-11-20T17:03:29;2.20;;;1.60;;
35907;SDS011;22003;50.320;8.054;2022-11-20T17:05:55;9.38;;;6.30;;
35907;SDS011;22003;50.320;8.054;2022-11-20T17:08:20;14.07;;;7.20;;
35907;SDS011;22003;50.320;8.054;2022-11-20T17:10:45;11.55;;;5.10;;
35907;SDS011;22003;50.320;8.054;2022-11-20T17:13:10;5.85;;;3.90;;
35907;SDS011;22003;50.320;8.054;2022-11-20T17:15:36;6.33;;;4.37;;
35907;SDS011;22003;50.320;8.054;2022-11-20T17:18:01;14.00;;;7.35;;
35907;SDS011;22003;50.320;8.054;2022-11-20T17:20:27;15.15;;;7.57;;
35907;SDS011;22003;50.320;8.054;2022-11-20T17:22:52;22.70;;;10.80;;
35907;SDS011;22003;50.320;8.054;2022-11-20T17:25:17;19.08;;;10.60;;
35907;SDS011;22003;50.320;8.054;2022-11-20T17:27:43;14.77;;;9.70;;
35907;SDS011;22003;50.320;8.054;2022-11-20T17:30:08;11.43;;;6.70;;
35907;SDS011;22003;50.320;8.054;2022-11-20T17:32:33;6.80;;;4.45;;
35907;SDS011;22003;50.320;8.054;2022-11-20T17:34:58;14.73;;;7.32;;
35907;SDS011;22003;50.320;8.054;2022-11-20T17:37:23;16.60;;;7.75;;
35907;SDS011;22003;50.320;8.054;2022-11-20T17:39:48;15.10;;;7.50;;
35907;SDS011;22003;50.320;8.054;2022-11-20T17:42:13;10.50;;;6.45;;
35907;SDS011;22003;50.320;8.054;2022-11-20T17:44:51;16.95;;;7.55;;
35907;SDS011;22003;50.320;8.054;2022-11-20T17:47:16;26.92;;;11.10;;
35907;SDS011;22003;50.320;8.054;2022-11-20T17:49:41;31.00;;;11.40;;
35907;SDS011;22003;50.320;8.054;2022-11-20T17:52:06;51.50;;;14.68;;
35907;SDS011;22003;50.320;8.054;2022-11-20T17:54:31;43.42;;;14.40;;
35907;SDS011;22003;50.320;8.054;2022-11-20T17:56:56;40.58;;;15.13;;
35907;SDS011;22003;50.320;8.054;2022-11-20T17:59:40;31.63;;;12.80;;
35907;SDS011;22003;50.320;8.054;2022-11-20T18:02:05;21.95;;;10.00;;
35907;SDS011;22003;50.320;8.054;2022-11-20T18:04:30;21.00;;;8.53;;
35907;SDS011;22003;50.320;8.054;2022-11-20T18:06:55;19.40;;;8.77;;
35907;SDS011;22003;50.320;8.054;2022-11-20T18:09:21;18.98;;;8.13;;
35907;SDS011;22003;50.320;8.054;2022-11-20T18:11:46;10.18;;;5.53;;
35907;SDS011;22003;50.320;8.054;2022-11-20T18:14:13;20.10;;;8.52;;
35907;SDS011;22003;50.320;8.054;2022-11-20T18:16:54;78.82;;;39.17;;
35907;SDS011;22003;50.320;8.054;2022-11-20T18:19:26;8.77;;;5.75;;
35907;SDS011;22003;50.320;8.054;2022-11-20T18:21:52;9.57;;;5.47;;
35907;SDS011;22003;50.320;8.054;2022-11-20T18:24:17;11.70;;;6.35;;
35907;SDS011;22003;50.320;8.054;2022-11-20T18:26:42;9.10;;;5.82;;
35907;SDS011;22003;50.320;8.054;2022-11-20T18:29:08;10.27;;;5.45;;
35907;SDS011;22003;50.320;8.054;2022-11-20T18:31:33;9.13;;;4.88;;
35907;SDS011;22003;50.320;8.054;2022-11-20T18:33:58;8.82;;;5.63;;
35907;SDS011;22003;50.320;8.054;2022-11-20T18:36:24;6.78;;;4.18;;
35907;SDS011;22003;50.320;8.054;2022-11-20T18:38:51;5.18;;;3.60;;
35907;SDS011;22003;50.320;8.054;2022-11-20T18:41:18;6.05;;;3.20;;
35907;SDS011;22003;50.320;8.054;2022-11-20T18:44:03;5.68;;;2.85;;
35907;SDS011;22003;50.320;8.054;2022-11-20T18:47:04;7.00;;;3.60;;
35907;SDS011;22003;50.320;8.054;2022-11-20T18:49:29;4.38;;;2.22;;
35907;SDS011;22003;50.320;8.054;2022-11-20T18:51:54;4.97;;;2.83;;
35907;SDS011;22003;50.320;8.054;2022-11-20T18:54:19;5.13;;;2.65;;
35907;SDS011;22003;50.320;8.054;2022-11-20T18:56:45;3.90;;;1.95;;
35907;SDS011;22003;50.320;8.054;2022-11-20T18:59:10;2.72;;;1.80;;
35907;SDS011;22003;50.320;8.054;2022-11-20T19:01:36;5.60;;;1.75;;
35907;SDS011;22003;50.320;8.054;2022-11-20T19:04:08;7.20;;;3.60;;
35907;SDS011;22003;50.320;8.054;2022-11-20T19:06:34;5.47;;;2.30;;
35907;SDS011;22003;50.320;8.054;2022-11-20T19:08:59;6.78;;;2.60;;
35907;SDS011;22003;50.320;8.054;2022-11-20T19:11:24;3.72;;;2.58;;
35907;SDS011;22003;50.320;8.054;2022-11-20T19:13:49;4.03;;;1.70;;
35907;SDS011;22003;50.320;8.054;2022-11-20T19:16:16;6.07;;;2.03;;
35907;SDS011;22003;50.320;8.054;2022-11-20T19:18:42;4.10;;;1.60;;
35907;SDS011;22003;50.320;8.054;2022-11-20T19:21:08;5.68;;;2.88;;
35907;SDS011;22003;50.320;8.054;2022-11-20T19:23:33;12.30;;;5.85;;
35907;SDS011;22003;50.320;8.054;2022-11-20T19:25:59;6.32;;;3.17;;
35907;SDS011;22003;50.320;8.054;2022-11-20T19:28:25;2.38;;;1.98;;
35907;SDS011;22003;50.320;8.054;2022-11-20T19:30:50;4.47;;;3.33;;
35907;SDS011;22003;50.320;8.054;2022-11-20T19:33:15;16.90;;;10.27;;
35907;SDS011;22003;50.320;8.054;2022-11-20T19:35:41;4.20;;;1.65;;
35907;SDS011;22003;50.320;8.054;2022-11-20T19:38:06;3.42;;;1.70;;
35907;SDS011;22003;50.320;8.054;2022-11-20T19:40:31;0.88;;;0.77;;
35907;SDS011;22003;50.320;8.054;2022-11-20T19:42:56;3.75;;;2.67;;
35907;SDS011;22003;50.320;8.054;2022-11-20T19:45:21;2.67;;;1.40;;
35907;SDS011;22003;50.320;8.054;2022-11-20T19:47:46;8.60;;;3.05;;
35907;SDS011;22003;50.320;8.054;2022-11-20T19:50:12;6.22;;;3.03;;
35907;SDS011;22003;50.320;8.054;2022-11-20T19:52:37;2.33;;;1.17;;
35907;SDS011;22003;50.320;8.054;2022-11-20T19:55:02;4.88;;;2.38;;
35907;SDS011;22003;50.320;8.054;2022-11-20T19:57:28;73.70;;;21.10;;
35907;SDS011;22003;50.320;8.054;2022-11-20T19:59:53;4.35;;;1.83;;
35907;SDS011;22003;50.320;8.054;2022-11-20T20:02:19;8.35;;;2.83;;
35907;SDS011;22003;50.320;8.054;2022-11-20T20:04:44;7.22;;;3.00;;
35907;SDS011;22003;50.320;8.054;2022-11-20T20:07:10;8.70;;;2.72;;
35907;SDS011;22003;50.320;8.054;2022-11-20T20:09:35;5.15;;;2.78;;
35907;SDS011;22003;50.320;8.054;2022-11-20T20:12:01;7.00;;;2.90;;
35907;SDS011;22003;50.320;8.054;2022-11-20T20:14:26;7.18;;;3.42;;
35907;SDS011;22003;50.320;8.054;2022-11-20T20:16:51;12.43;;;3.95;;
35907;SDS011;22003;50.320;8.054;2022-11-20T20:19:16;15.95;;;5.63;;
35907;SDS011;22003;50.320;8.054;2022-11-20T20:21:41;8.82;;;3.72;;
35907;SDS011;22003;50.320;8.054;2022-11-20T20:24:08;4.85;;;3.17;;
35907;SDS011;22003;50.320;8.054;2022-11-20T20:26:33;4.68;;;3.15;;
35907;SDS011;22003;50.320;8.054;2022-11-20T20:28:59;9.20;;;4.63;;
35907;SDS011;22003;50.320;8.054;2022-11-20T20:31:26;8.55;;;4.15;;
35907;SDS011;22003;50.320;8.054;2022-11-20T20:33:52;3.55;;;2.08;;